createdAt,value
2023-04-26T00:00:47.236Z,6.07
2023-04-26T00:03:14.361Z,13.10
2023-04-26T00:05:41.472Z,8.43
2023-04-26T00:08:09.150Z,7.50
2023-04-26T00:10:35.833Z,6.83
2023-04-26T00:13:02.417Z,3.40
2023-04-26T00:15:29.103Z,8.57
2023-04-26T00:17:55.770Z,6.50
2023-04-26T00:20:22.343Z,8.10
2023-04-26T00:22:48.937Z,4.40
2023-04-26T00:25:15.604Z,10.87
2023-04-26T00:27:42.147Z,6.97
2023-04-26T00:30:09.188Z,8.03
2023-04-26T00:32:36.268Z,6.73
2023-04-26T00:35:06.385Z,7.17
2023-04-26T00:37:32.989Z,10.03
2023-04-26T00:39:59.603Z,7.23
2023-04-26T00:42:27.591Z,8.03
2023-04-26T00:44:57.226Z,8.70
2023-04-26T00:47:29.486Z,7.70
2023-04-26T00:49:56.297Z,8.27
2023-04-26T00:52:23.922Z,5.80
2023-04-26T00:54:51.269Z,8.43
2023-04-26T00:57:17.909Z,8.33
2023-04-26T00:59:44.492Z,5.93
2023-04-26T01:02:11.298Z,11.43
2023-04-26T01:04:39.644Z,9.70
2023-04-26T01:07:06.252Z,11.27
2023-04-26T01:09:32.890Z,9.57
2023-04-26T01:12:00.561Z,11.50
2023-04-26T01:14:28.177Z,13.87
2023-04-26T01:16:56.551Z,12.57
2023-04-26T01:19:23.372Z,7.87
2023-04-26T01:21:49.971Z,6.80
2023-04-26T01:24:16.757Z,7.93
2023-04-26T01:26:46.397Z,5.87
2023-04-26T01:29:17.439Z,6.90
2023-04-26T01:31:44.849Z,8.13
2023-04-26T01:34:11.770Z,6.50
2023-04-26T01:36:38.415Z,8.50
2023-04-26T01:39:05.028Z,9.77
2023-04-26T01:41:32.683Z,6.77
2023-04-26T01:43:59.534Z,7.40
2023-04-26T01:46:26.253Z,9.30
2023-04-26T01:48:53.198Z,6.07
2023-04-26T01:51:20.047Z,4.77
2023-04-26T01:53:46.585Z,11.33
2023-04-26T01:56:13.137Z,7.73
2023-04-26T01:58:39.711Z,9.17
2023-04-26T02:01:08.938Z,7.70
2023-04-26T02:03:36.150Z,7.17
2023-04-26T02:06:03.632Z,9.50
2023-04-26T02:08:30.411Z,8.70
2023-04-26T02:10:57.214Z,5.90
2023-04-26T02:13:23.840Z,8.53
2023-04-26T02:15:51.503Z,7.93
2023-04-26T02:18:21.704Z,9.00
2023-04-26T02:20:48.353Z,8.70
2023-04-26T02:23:15.555Z,8.77
2023-04-26T02:25:44.981Z,13.47
2023-04-26T02:28:11.643Z,8.50
2023-04-26T02:30:38.292Z,10.17
2023-04-26T02:33:05.027Z,7.63
2023-04-26T02:35:31.732Z,7.80
2023-04-26T02:37:58.355Z,5.73
2023-04-26T02:40:24.962Z,6.43
2023-04-26T02:42:51.785Z,9.50
2023-04-26T02:45:18.421Z,7.73
2023-04-26T02:47:44.996Z,8.60
2023-04-26T02:50:11.734Z,7.40
2023-04-26T02:52:38.317Z,7.53
2023-04-26T02:55:05.529Z,7.03
2023-04-26T02:57:32.795Z,7.90
2023-04-26T02:59:59.653Z,12.27
2023-04-26T03:02:26.717Z,7.97
2023-04-26T03:04:53.664Z,6.83
2023-04-26T03:07:20.479Z,8.50
2023-04-26T03:09:47.028Z,8.70
2023-04-26T03:12:13.592Z,8.60
2023-04-26T03:14:40.135Z,7.83
2023-04-26T03:17:06.737Z,7.70
2023-04-26T03:19:33.614Z,8.73
2023-04-26T03:22:00.208Z,8.20
2023-04-26T03:24:26.954Z,7.57
2023-04-26T03:26:53.495Z,9.87
2023-04-26T03:29:20.083Z,9.00
2023-04-26T03:31:46.680Z,8.03
2023-04-26T03:34:13.292Z,11.33
2023-04-26T03:36:39.897Z,6.40
2023-04-26T03:39:06.539Z,7.03
2023-04-26T03:41:33.514Z,7.63
2023-04-26T03:44:00.229Z,11.80
2023-04-26T03:46:26.878Z,12.10
2023-04-26T03:48:53.822Z,11.57
2023-04-26T03:51:20.887Z,8.17
2023-04-26T03:53:48.656Z,12.80
2023-04-26T03:56:15.361Z,14.13
2023-04-26T03:58:42.166Z,10.20
2023-04-26T04:01:08.774Z,8.80
2023-04-26T04:03:37.711Z,8.20
2023-04-26T04:06:06.117Z,8.93
2023-04-26T04:08:32.691Z,7.93
2023-04-26T04:10:59.240Z,10.53
2023-04-26T04:13:25.776Z,7.07
2023-04-26T04:15:52.384Z,16.30
2023-04-26T04:18:19.021Z,9.50
2023-04-26T04:20:46.026Z,13.23
2023-04-26T04:23:12.667Z,9.53
2023-04-26T04:25:39.424Z,9.47
2023-04-26T04:28:06.295Z,10.80
2023-04-26T04:30:32.872Z,9.97
2023-04-26T04:33:00.110Z,11.67
2023-04-26T04:35:29.137Z,10.47
2023-04-26T04:37:58.648Z,9.60
2023-04-26T04:40:26.155Z,10.27
2023-04-26T04:42:53.451Z,9.30
2023-04-26T04:45:20.231Z,8.13
2023-04-26T04:47:47.432Z,9.33
2023-04-26T04:50:14.622Z,10.67
2023-04-26T04:52:42.417Z,11.17
2023-04-26T04:55:09.802Z,17.70
2023-04-26T04:57:36.397Z,9.40
2023-04-26T05:00:10.196Z,10.67
2023-04-26T05:02:37.375Z,12.43
2023-04-26T05:05:05.264Z,13.20
2023-04-26T05:07:32.597Z,12.37
2023-04-26T05:09:59.723Z,11.63
2023-04-26T05:12:26.659Z,21.00
2023-04-26T05:14:53.318Z,14.70
2023-04-26T05:17:20.067Z,12.40
2023-04-26T05:19:47.147Z,21.37
2023-04-26T05:22:18.250Z,13.60
2023-04-26T05:24:48.567Z,11.70
2023-04-26T05:27:15.318Z,10.20
2023-04-26T05:29:42.128Z,12.40
2023-04-26T05:32:09.025Z,14.37
2023-04-26T05:34:36.633Z,10.23
2023-04-26T05:37:03.559Z,13.70
2023-04-26T05:39:30.521Z,17.13
2023-04-26T05:41:57.233Z,14.60
2023-04-26T05:44:24.499Z,22.50
2023-04-26T05:46:51.131Z,15.60
2023-04-26T05:49:17.732Z,18.23
2023-04-26T05:51:44.314Z,14.70
2023-04-26T05:54:10.929Z,15.90
2023-04-26T05:56:37.483Z,18.23
2023-04-26T05:59:04.177Z,24.37
2023-04-26T06:01:30.861Z,20.17
2023-04-26T06:04:00.219Z,24.50
2023-04-26T06:06:28.248Z,27.73
2023-04-26T06:08:55.014Z,20.77
2023-04-26T06:11:21.800Z,22.77
2023-04-26T06:13:48.456Z,17.80
2023-04-26T06:16:15.269Z,17.43
2023-04-26T06:18:42.328Z,20.50
2023-04-26T06:21:08.954Z,15.97
2023-04-26T06:23:35.670Z,14.70
2023-04-26T06:26:02.260Z,13.80
2023-04-26T06:28:28.840Z,14.00
2023-04-26T06:30:55.543Z,19.60
2023-04-26T06:33:22.269Z,18.37
2023-04-26T06:35:48.850Z,19.07
2023-04-26T06:38:15.618Z,13.70
2023-04-26T06:40:42.588Z,13.50
2023-04-26T06:43:09.153Z,16.27
2023-04-26T06:45:36.075Z,16.90
2023-04-26T06:48:04.753Z,11.77
2023-04-26T06:50:31.477Z,11.90
2023-04-26T06:52:58.180Z,11.30
2023-04-26T06:55:24.959Z,13.57
2023-04-26T06:57:51.600Z,13.10
2023-04-26T07:00:18.368Z,14.00
2023-04-26T07:02:45.374Z,14.47
2023-04-26T07:05:12.299Z,12.73
2023-04-26T07:07:39.144Z,11.20
2023-04-26T07:10:07.264Z,15.23
2023-04-26T07:12:33.898Z,18.67
2023-04-26T07:15:01.370Z,11.80
2023-04-26T07:17:28.061Z,13.30
2023-04-26T07:19:56.169Z,12.80
2023-04-26T07:22:23.459Z,10.73
2023-04-26T07:24:50.155Z,16.63
2023-04-26T07:27:16.997Z,11.60
2023-04-26T07:29:43.603Z,10.70
2023-04-26T07:32:10.371Z,10.33
2023-04-26T07:34:37.485Z,11.20
2023-04-26T07:37:04.476Z,7.00
2023-04-26T07:39:31.364Z,7.07
2023-04-26T07:41:57.933Z,11.40
2023-04-26T07:44:24.478Z,8.13
2023-04-26T07:46:51.533Z,6.03
2023-04-26T07:49:18.124Z,7.07
2023-04-26T07:51:45.590Z,10.60
2023-04-26T07:54:12.164Z,4.90
2023-04-26T07:56:38.694Z,6.17
2023-04-26T07:59:05.277Z,7.10
2023-04-26T08:01:31.924Z,8.00
2023-04-26T08:03:59.013Z,5.85
2023-04-26T08:06:26.828Z,7.40
2023-04-26T08:08:53.923Z,5.10
2023-04-26T08:11:20.742Z,5.13
2023-04-26T08:13:47.952Z,9.30
2023-04-26T08:16:15.188Z,2.30
2023-04-26T08:18:42.835Z,3.43
2023-04-26T08:21:11.262Z,5.50
2023-04-26T08:23:37.898Z,7.23
2023-04-26T08:26:04.643Z,4.00
2023-04-26T08:28:31.392Z,4.43
2023-04-26T08:30:58.161Z,5.00
2023-04-26T08:33:25.554Z,4.40
2023-04-26T08:35:52.448Z,3.67
2023-04-26T08:38:19.058Z,4.57
2023-04-26T08:40:46.909Z,4.37
2023-04-26T08:43:16.972Z,3.37
2023-04-26T08:45:47.000Z,5.00
2023-04-26T08:48:18.160Z,6.47
2023-04-26T08:50:46.476Z,3.10
2023-04-26T08:53:20.189Z,4.90
2023-04-26T08:55:49.504Z,8.47
2023-04-26T08:58:17.820Z,4.00
2023-04-26T09:00:46.014Z,3.23
2023-04-26T09:03:12.988Z,3.57
2023-04-26T09:05:44.008Z,5.67
2023-04-26T09:08:15.990Z,4.60
2023-04-26T09:10:42.583Z,12.77
2023-04-26T09:13:09.235Z,8.57
2023-04-26T09:15:35.942Z,8.80
2023-04-26T09:18:22.699Z,5.90
2023-04-26T09:21:03.726Z,10.00
2023-04-26T09:23:30.743Z,3.77
